createdAt,value
2022-08-07T00:02:37.481Z,54.92
2022-08-07T00:07:44.107Z,54.82
2022-08-07T00:13:00.115Z,54.35
2022-08-07T00:18:05.726Z,53.84
2022-08-07T00:23:09.578Z,54.20
2022-08-07T00:28:12.842Z,54.26
2022-08-07T00:33:18.631Z,54.67
2022-08-07T00:38:31.714Z,53.99
2022-08-07T00:43:59.485Z,54.67
2022-08-07T00:49:03.474Z,54.27
2022-08-07T00:54:07.949Z,53.43
2022-08-07T00:59:16.153Z,53.15
2022-08-07T01:04:24.696Z,52.91
2022-08-07T01:09:51.223Z,52.77
2022-08-07T01:14:57.067Z,52.27
2022-08-07T01:20:10.554Z,52.14
2022-08-07T01:25:53.529Z,52.61
2022-08-07T01:30:51.181Z,53.25
2022-08-07T01:36:06.542Z,52.86
2022-08-07T01:41:26.233Z,53.63
2022-08-07T01:46:35.218Z,53.65
2022-08-07T01:52:03.951Z,54.08
2022-08-07T01:57:24.264Z,53.65
2022-08-07T02:03:19.399Z,52.56
2022-08-07T02:08:03.689Z,52.65
2022-08-07T02:13:16.394Z,53.26
2022-08-07T02:18:29.939Z,53.20
2022-08-07T02:23:37.176Z,52.22
2022-08-07T02:28:42.172Z,51.99
2022-08-07T02:34:03.058Z,51.96
2022-08-07T02:39:43.802Z,52.67
2022-08-07T02:44:48.154Z,52.50
2022-08-07T02:49:57.550Z,52.15
2022-08-07T02:55:27.794Z,53.21
2022-08-07T03:00:46.818Z,53.83
2022-08-07T03:05:53.927Z,53.86
2022-08-07T03:10:58.795Z,54.31
2022-08-07T03:16:12.176Z,54.67
2022-08-07T03:21:18.946Z,54.74
2022-08-07T03:26:28.866Z,55.02
2022-08-07T03:31:43.554Z,55.83
2022-08-07T03:36:54.013Z,55.91
2022-08-07T03:42:00.766Z,55.58
2022-08-07T03:47:11.094Z,55.73
2022-08-07T03:52:22.689Z,54.29
2022-08-07T03:58:35.082Z,53.54
2022-08-07T04:03:04.330Z,54.18
2022-08-07T04:08:16.362Z,56.01
2022-08-07T04:13:27.779Z,54.75
2022-08-07T04:18:59.634Z,54.75
2022-08-07T04:24:06.982Z,54.80
2022-08-07T04:29:12.129Z,53.99
2022-08-07T04:34:27.344Z,53.03
2022-08-07T04:39:35.854Z,53.24
2022-08-07T04:45:02.630Z,53.54
2022-08-07T04:50:14.686Z,53.85
2022-08-07T04:58:11.330Z,53.74
2022-08-07T05:01:18.074Z,53.82
2022-08-07T05:06:51.205Z,51.42
2022-08-07T05:11:56.778Z,51.71
2022-08-07T05:17:11.680Z,50.36
2022-08-07T05:22:27.785Z,48.76
2022-08-07T05:28:02.031Z,46.32
2022-08-07T05:33:02.317Z,44.66
2022-08-07T05:38:08.194Z,45.79
2022-08-07T05:43:13.842Z,42.49
2022-08-07T05:48:26.292Z,42.49
2022-08-07T05:54:11.955Z,40.67
2022-08-07T05:58:55.936Z,40.05
2022-08-07T06:04:03.860Z,40.96
2022-08-07T06:09:15.291Z,42.11
2022-08-07T06:14:28.851Z,39.83
2022-08-07T06:19:57.684Z,39.61
2022-08-07T06:25:03.129Z,37.65
2022-08-07T06:30:08.319Z,35.35
2022-08-07T06:35:39.182Z,30.90
2022-08-07T06:40:54.992Z,29.53
2022-08-07T06:46:01.090Z,28.65
2022-08-07T06:51:09.627Z,29.04
2022-08-07T06:56:17.847Z,29.34
2022-08-07T07:01:23.961Z,27.10
2022-08-07T07:06:39.355Z,25.79
2022-08-07T07:12:09.011Z,28.41
2022-08-07T07:17:38.890Z,28.31
2022-08-07T07:24:09.419Z,28.05
2022-08-07T07:28:42.106Z,26.54
2022-08-07T07:33:43.851Z,26.43
2022-08-07T07:39:00.743Z,26.07
2022-08-07T07:44:17.161Z,25.89
2022-08-07T07:50:35.830Z,24.29
2022-08-07T07:54:52.199Z,25.40
2022-08-07T07:59:56.229Z,25.69
2022-08-07T08:05:14.389Z,24.39
2022-08-07T08:10:35.572Z,25.54
2022-08-07T08:15:57.721Z,22.88
2022-08-07T08:21:26.706Z,24.66
2022-08-07T08:27:12.352Z,24.88
2022-08-07T08:32:25.480Z,25.19
2022-08-07T08:38:00.901Z,25.35
2022-08-07T08:43:16.651Z,23.23
2022-08-07T08:48:58.525Z,23.26
2022-08-07T08:54:11.358Z,24.18
2022-08-07T08:59:23.201Z,22.98
2022-08-07T09:04:47.719Z,22.10
2022-08-07T09:10:05.763Z,23.85
2022-08-07T09:16:22.086Z,22.91
2022-08-07T09:22:09.947Z,23.05
2022-08-07T09:27:04.539Z,21.37
2022-08-07T09:32:38.408Z,24.06
2022-08-07T09:38:10.322Z,22.77
2022-08-07T09:44:03.518Z,23.85
2022-08-07T09:50:00.452Z,22.47
2022-08-07T09:54:45.298Z,25.43
2022-08-07T10:00:18.822Z,25.41
2022-08-07T10:06:01.304Z,24.25
2022-08-07T10:12:00.031Z,24.90
2022-08-07T10:16:55.798Z,26.97
2022-08-07T10:22:24.941Z,29.11
2022-08-07T10:27:52.326Z,29.69
2022-08-07T10:34:04.101Z,25.68
2022-08-07T10:39:11.120Z,24.92
2022-08-07T10:44:38.418Z,29.51
2022-08-07T10:49:51.795Z,27.18
2022-08-07T10:55:26.632Z,28.34
2022-08-07T11:00:50.285Z,32.19
2022-08-07T11:06:18.458Z,35.44
2022-08-07T11:11:35.614Z,36.02
2022-08-07T11:16:52.772Z,32.44
2022-08-07T11:22:18.762Z,34.96
2022-08-07T11:28:02.999Z,36.60
2022-08-07T11:33:18.265Z,38.37
2022-08-07T11:38:34.006Z,56.96
2022-08-07T11:44:11.070Z,67.87
2022-08-07T11:49:50.658Z,68.24
2022-08-07T11:55:18.631Z,75.67
2022-08-07T12:00:41.758Z,72.91
2022-08-07T12:06:37.604Z,83.26
2022-08-07T12:12:10.623Z,78.56
2022-08-07T12:17:20.352Z,80.12
2022-08-07T12:22:56.328Z,75.42
2022-08-07T12:28:13.450Z,81.68
2022-08-07T12:33:30.978Z,69.50
2022-08-07T12:38:57.519Z,65.27
2022-08-07T12:44:13.135Z,65.12
2022-08-07T12:49:50.972Z,67.50
2022-08-07T12:55:05.618Z,63.57
2022-08-07T13:00:20.785Z,63.94
2022-08-07T13:06:21.886Z,69.26
2022-08-07T13:12:02.268Z,69.78
2022-08-07T13:17:40.008Z,68.74
2022-08-07T13:23:03.803Z,63.33
2022-08-07T13:28:24.151Z,67.75
2022-08-07T13:34:30.139Z,63.31
2022-08-07T13:39:28.693Z,64.73
2022-08-07T13:44:42.466Z,65.15
2022-08-07T13:50:33.402Z,68.30
2022-08-07T13:55:19.538Z,62.94
2022-08-07T14:00:50.587Z,70.93
2022-08-07T14:10:21.726Z,80.67
2022-08-07T14:24:50.188Z,89.30
2022-08-07T14:30:06.589Z,92.39
2022-08-07T14:35:34.425Z,96.43
2022-08-07T14:43:59.028Z,96.58
2022-08-07T15:05:26.922Z,99.44
2022-08-07T15:10:33.344Z,98.88
2022-08-07T15:15:38.906Z,97.53
2022-08-07T15:20:54.962Z,98.75
2022-08-07T15:26:02.990Z,95.82
2022-08-07T15:31:10.897Z,93.26
2022-08-07T15:37:03.151Z,92.61
2022-08-07T15:48:00.390Z,90.10
2022-08-07T15:52:52.080Z,90.44
2022-08-07T15:58:00.312Z,87.76
2022-08-07T16:03:21.669Z,89.92
2022-08-07T16:08:38.600Z,89.46
2022-08-07T16:14:20.430Z,90.75
2022-08-07T16:19:43.166Z,91.67
2022-08-07T16:25:54.666Z,89.80
2022-08-07T16:31:51.868Z,87.26
2022-08-07T16:37:02.831Z,87.79
2022-08-07T16:42:55.259Z,89.08
2022-08-07T16:48:30.071Z,87.81
2022-08-07T16:54:09.018Z,88.69
2022-08-07T16:59:19.258Z,88.75
2022-08-07T17:04:51.105Z,87.73
2022-08-07T17:10:08.284Z,91.72
2022-08-07T17:15:15.781Z,93.09
2022-08-07T17:20:46.712Z,94.36
2022-08-07T17:26:22.648Z,95.90
2022-08-07T17:32:02.518Z,96.04
2022-08-07T17:38:09.739Z,96.38
2022-08-07T17:43:02.056Z,96.50
2022-08-07T17:48:30.702Z,96.94
2022-08-07T17:54:00.021Z,97.99
2022-08-07T17:59:17.127Z,98.24
2022-08-07T18:04:38.595Z,97.33
2022-08-07T18:10:05.945Z,96.52
2022-08-07T18:15:23.537Z,95.99
2022-08-07T18:21:11.870Z,94.65
2022-08-07T18:26:16.305Z,95.33
2022-08-07T18:31:49.922Z,95.11
2022-08-07T18:38:56.014Z,94.76
2022-08-07T18:43:00.059Z,95.07
2022-08-07T18:50:49.693Z,94.38
2022-08-07T18:56:14.309Z,91.27
2022-08-07T19:02:18.249Z,88.31
2022-08-07T19:07:56.959Z,85.43
2022-08-07T19:13:11.654Z,84.72
2022-08-07T19:18:34.858Z,81.72
2022-08-07T19:23:57.089Z,82.39
2022-08-07T19:31:01.705Z,80.08
2022-08-07T19:34:36.395Z,79.29
2022-08-07T19:39:57.949Z,79.35
2022-08-07T19:45:09.955Z,81.86
2022-08-07T19:50:41.125Z,81.52
2022-08-07T19:55:56.905Z,82.50
2022-08-07T20:01:01.675Z,83.52
2022-08-07T20:06:15.530Z,83.14
2022-08-07T20:12:01.403Z,86.33
2022-08-07T20:17:00.397Z,87.12
2022-08-07T20:22:12.331Z,88.11
2022-08-07T20:27:46.275Z,89.47
2022-08-07T20:32:46.715Z,88.81
2022-08-07T20:37:59.195Z,88.30
2022-08-07T20:43:09.580Z,87.47
2022-08-07T20:48:28.784Z,86.37
2022-08-07T20:54:03.343Z,87.23
2022-08-07T20:59:03.509Z,87.96
2022-08-07T21:04:25.157Z,88.63
2022-08-07T21:09:52.678Z,86.99
2022-08-07T21:15:02.467Z,84.48
2022-08-07T21:20:10.032Z,83.05
2022-08-07T21:25:56.153Z,81.30
2022-08-07T21:31:31.276Z,80.19
2022-08-07T21:37:03.916Z,79.83
2022-08-07T21:42:41.992Z,81.10
2022-08-07T21:48:27.703Z,82.09
2022-08-07T21:53:52.450Z,82.82
2022-08-07T21:59:07.122Z,80.15
2022-08-07T22:04:23.681Z,72.63
2022-08-07T22:09:38.086Z,70.34
2022-08-07T22:15:04.154Z,65.72
2022-08-07T22:20:50.160Z,72.14
2022-08-07T22:26:06.704Z,70.01
2022-08-07T22:31:59.035Z,70.29
2022-08-07T22:37:09.269Z,69.71
2022-08-07T22:42:20.169Z,74.01
2022-08-07T22:47:42.343Z,75.64
2022-08-07T22:54:07.000Z,74.51
2022-08-07T22:58:53.235Z,75.09
2022-08-07T23:04:13.976Z,77.84
2022-08-07T23:10:05.146Z,75.00
2022-08-07T23:16:07.149Z,73.27
2022-08-07T23:21:16.308Z,72.84
2022-08-07T23:26:26.418Z,77.69
2022-08-07T23:34:19.695Z,76.15
2022-08-07T23:37:30.202Z,76.14
2022-08-07T23:42:55.163Z,77.61
2022-08-07T23:48:07.069Z,77.46
2022-08-07T23:53:22.763Z,77.77
2022-08-07T23:59:10.871Z,74.74
